createdAt,value
2023-05-15T00:02:16.552Z,7.88
2023-05-15T00:04:43.275Z,8.80
2023-05-15T00:07:10.314Z,8.85
2023-05-15T00:12:05.316Z,8.15
2023-05-15T00:14:32.347Z,8.82
2023-05-15T00:17:00.158Z,8.70
2023-05-15T00:19:26.658Z,7.72
2023-05-15T00:21:53.462Z,8.45
2023-05-15T00:24:21.922Z,8.13
2023-05-15T00:26:48.897Z,7.88
2023-05-15T00:29:15.983Z,8.68
2023-05-15T00:31:42.899Z,8.40
2023-05-15T00:34:09.733Z,8.38
2023-05-15T00:36:37.432Z,7.93
2023-05-15T00:39:04.347Z,8.50
2023-05-15T00:41:31.276Z,8.25
2023-05-15T00:43:58.385Z,8.23
2023-05-15T00:46:27.316Z,9.32
2023-05-15T00:48:55.130Z,8.80
2023-05-15T00:51:21.949Z,9.15
2023-05-15T00:53:50.459Z,8.30
2023-05-15T00:56:17.898Z,8.30
2023-05-15T00:58:46.679Z,8.55
2023-05-15T01:01:16.474Z,8.15
2023-05-15T01:03:46.963Z,8.93
2023-05-15T01:06:13.971Z,9.07
2023-05-15T01:08:46.096Z,9.13
2023-05-15T01:11:14.958Z,9.18
2023-05-15T01:13:41.801Z,8.93
2023-05-15T01:16:09.433Z,8.85
2023-05-15T01:18:37.537Z,9.05
2023-05-15T01:21:10.359Z,9.48
2023-05-15T01:23:55.282Z,9.20
2023-05-15T01:26:59.761Z,8.40
2023-05-15T01:29:46.171Z,8.88
2023-05-15T01:32:28.901Z,8.65
2023-05-15T01:35:04.530Z,8.13
2023-05-15T01:37:35.009Z,8.50
2023-05-15T01:40:07.638Z,8.93
2023-05-15T01:42:37.227Z,8.15
2023-05-15T01:45:05.239Z,9.00
2023-05-15T01:47:44.896Z,9.75
2023-05-15T01:50:15.385Z,8.85
2023-05-15T01:52:48.072Z,9.20
2023-05-15T01:55:15.385Z,9.73
2023-05-15T01:57:43.219Z,9.00
2023-05-15T02:00:11.825Z,9.57
2023-05-15T02:02:38.972Z,9.18
2023-05-15T02:05:06.676Z,9.43
2023-05-15T02:07:34.364Z,8.70
2023-05-15T02:10:02.718Z,8.43
2023-05-15T02:12:30.719Z,9.95
2023-05-15T02:14:58.549Z,9.15
2023-05-15T02:17:26.641Z,9.00
2023-05-15T02:19:53.105Z,8.48
2023-05-15T02:22:20.000Z,8.70
2023-05-15T02:24:47.392Z,9.20
2023-05-15T02:27:22.740Z,8.80
2023-05-15T02:30:13.558Z,9.27
2023-05-15T02:32:49.812Z,9.10
2023-05-15T02:35:32.077Z,9.20
2023-05-15T02:38:02.874Z,9.50
2023-05-15T02:40:32.041Z,10.05
2023-05-15T02:43:00.331Z,9.65
2023-05-15T02:45:27.415Z,9.38
2023-05-15T02:47:54.679Z,9.88
2023-05-15T02:50:21.847Z,9.27
2023-05-15T02:55:15.051Z,9.18
2023-05-15T02:57:41.569Z,9.07
2023-05-15T03:00:08.810Z,9.00
2023-05-15T03:05:01.918Z,9.57
2023-05-15T03:07:29.628Z,9.82
2023-05-15T03:09:56.187Z,9.65
2023-05-15T03:12:22.698Z,9.30
2023-05-15T03:14:49.233Z,9.75
2023-05-15T03:17:16.121Z,9.25
2023-05-15T03:19:43.017Z,9.38
2023-05-15T03:22:09.771Z,10.05
2023-05-15T03:24:36.326Z,9.98
2023-05-15T03:27:03.125Z,9.77
2023-05-15T03:29:29.870Z,9.45
2023-05-15T03:31:56.740Z,10.13
2023-05-15T03:34:23.180Z,9.63
2023-05-15T03:36:50.083Z,10.45
2023-05-15T03:39:16.800Z,10.15
2023-05-15T03:41:43.388Z,9.98
2023-05-15T03:44:10.194Z,11.13
2023-05-15T03:46:36.821Z,9.98
2023-05-15T03:49:03.490Z,10.40
2023-05-15T03:51:30.112Z,9.60
2023-05-15T03:53:57.212Z,10.27
2023-05-15T03:56:24.235Z,11.68
2023-05-15T03:58:51.158Z,11.23
2023-05-15T04:01:17.949Z,11.00
2023-05-15T04:03:44.535Z,11.25
2023-05-15T04:06:11.300Z,11.75
2023-05-15T04:08:39.626Z,11.38
2023-05-15T04:11:07.622Z,12.00
2023-05-15T04:16:00.957Z,11.18
2023-05-15T04:18:27.485Z,11.50
2023-05-15T04:20:54.075Z,11.65
2023-05-15T04:23:20.947Z,11.38
2023-05-15T04:25:47.847Z,11.63
2023-05-15T04:28:15.371Z,11.30
2023-05-15T04:30:41.989Z,10.90
2023-05-15T04:33:08.729Z,11.15
2023-05-15T04:35:35.543Z,10.98
2023-05-15T04:38:03.088Z,12.18
2023-05-15T04:40:29.932Z,11.85
2023-05-15T04:42:58.142Z,11.48
2023-05-15T04:45:24.992Z,11.48
2023-05-15T04:47:51.736Z,10.68
2023-05-15T04:50:18.659Z,11.02
2023-05-15T04:52:45.306Z,11.73
2023-05-15T04:55:11.883Z,10.52
2023-05-15T04:57:38.395Z,10.60
2023-05-15T05:00:06.006Z,11.10
2023-05-15T05:02:32.414Z,10.48
2023-05-15T05:04:59.533Z,11.07
2023-05-15T05:09:54.186Z,10.13
2023-05-15T05:12:20.726Z,10.80
2023-05-15T05:14:47.176Z,10.77
2023-05-15T05:17:13.990Z,10.35
2023-05-15T05:19:42.184Z,9.40
2023-05-15T05:22:09.114Z,8.90
2023-05-15T05:24:35.828Z,9.75
2023-05-15T05:27:02.348Z,9.57
2023-05-15T05:29:30.359Z,9.25
2023-05-15T05:31:57.526Z,9.52
2023-05-15T05:34:24.629Z,9.43
2023-05-15T05:39:19.117Z,8.40
2023-05-15T05:41:45.914Z,9.32
2023-05-15T05:44:13.459Z,9.38
2023-05-15T05:46:40.075Z,9.68
2023-05-15T05:49:06.625Z,9.50
2023-05-15T05:51:36.375Z,9.73
2023-05-15T05:54:02.984Z,10.00
2023-05-15T05:56:29.978Z,10.25
2023-05-15T05:58:56.577Z,9.23
2023-05-15T06:01:26.394Z,9.75
2023-05-15T06:03:53.162Z,9.65
2023-05-15T06:06:19.750Z,9.55
2023-05-15T06:08:46.227Z,9.07
2023-05-15T06:11:13.827Z,9.73
2023-05-15T06:13:40.367Z,9.00
2023-05-15T06:16:08.965Z,9.80
2023-05-15T06:18:35.543Z,9.35
2023-05-15T06:21:02.187Z,10.38
2023-05-15T06:23:28.753Z,9.43
2023-05-15T06:25:55.260Z,10.23
2023-05-15T06:28:22.009Z,8.77
2023-05-15T06:30:48.830Z,9.13
2023-05-15T06:33:16.164Z,9.00
2023-05-15T06:35:42.745Z,9.38
2023-05-15T06:38:09.179Z,10.00
2023-05-15T06:40:35.985Z,9.43
2023-05-15T06:43:02.742Z,9.18
2023-05-15T06:45:29.767Z,9.65
2023-05-15T06:50:24.724Z,8.93
2023-05-15T06:52:51.655Z,9.23
2023-05-15T06:55:18.451Z,8.45
2023-05-15T06:57:44.967Z,8.50
2023-05-15T07:00:13.847Z,8.77
2023-05-15T07:02:40.607Z,9.45
2023-05-15T07:05:07.592Z,8.30
2023-05-15T07:10:01.394Z,8.05
2023-05-15T07:12:27.887Z,8.60
2023-05-15T07:14:54.649Z,8.15
2023-05-15T07:17:21.219Z,7.93
2023-05-15T07:19:47.743Z,8.57
2023-05-15T07:22:14.489Z,7.38
2023-05-15T07:24:41.372Z,8.23
2023-05-15T07:27:07.981Z,7.85
2023-05-15T07:29:34.803Z,8.25
2023-05-15T07:32:01.697Z,7.88
2023-05-15T07:36:54.855Z,7.75
2023-05-15T07:39:21.442Z,7.80
2023-05-15T07:41:48.286Z,8.13
2023-05-15T07:44:15.521Z,7.72
2023-05-15T07:46:42.176Z,7.32
2023-05-15T07:49:08.787Z,7.25
2023-05-15T07:51:35.615Z,7.07
2023-05-15T07:54:04.817Z,6.90
2023-05-15T07:56:32.196Z,6.20
2023-05-15T07:58:58.719Z,7.07
2023-05-15T08:01:25.632Z,7.50
2023-05-15T08:03:52.260Z,6.88
2023-05-15T08:06:19.175Z,7.03
2023-05-15T08:08:45.883Z,6.72
2023-05-15T08:11:12.492Z,8.27
2023-05-15T08:13:39.509Z,6.82
2023-05-15T08:18:33.862Z,6.90
2023-05-15T08:21:02.007Z,7.07
2023-05-15T08:23:29.665Z,7.22
2023-05-15T08:25:56.238Z,7.38
2023-05-15T08:28:22.885Z,6.63
2023-05-15T08:30:49.674Z,6.22
2023-05-15T08:33:16.510Z,6.80
2023-05-15T08:35:43.092Z,6.93
2023-05-15T08:38:09.627Z,6.72
2023-05-15T08:40:39.482Z,6.05
2023-05-15T08:43:13.206Z,7.25
2023-05-15T08:45:41.203Z,6.60
2023-05-15T08:48:11.572Z,6.47
2023-05-15T08:50:40.334Z,6.80
2023-05-15T08:53:08.489Z,6.88
2023-05-15T08:55:35.620Z,6.35
2023-05-15T08:58:02.753Z,6.20
2023-05-15T09:00:30.857Z,6.82
2023-05-15T09:03:00.258Z,7.13
2023-05-15T09:05:30.639Z,6.95
2023-05-15T09:07:59.605Z,7.13
2023-05-15T09:10:27.230Z,6.05
2023-05-15T09:12:56.736Z,6.70
2023-05-15T09:15:25.411Z,6.68
2023-05-15T09:17:55.066Z,6.10
2023-05-15T09:20:31.636Z,6.97
2023-05-15T09:23:00.444Z,7.07
2023-05-15T09:25:36.863Z,7.82
2023-05-15T09:28:29.928Z,7.53
2023-05-15T09:30:59.545Z,7.63
2023-05-15T09:33:31.106Z,7.40
2023-05-15T09:35:57.961Z,7.43
2023-05-15T09:38:24.732Z,7.82
2023-05-15T09:41:00.936Z,7.35
2023-05-15T09:43:29.572Z,7.75
2023-05-15T09:45:56.488Z,7.63
2023-05-15T09:48:23.412Z,8.00
2023-05-15T09:53:21.419Z,7.78
2023-05-15T09:55:49.251Z,7.38
2023-05-15T09:58:18.018Z,8.05
2023-05-15T10:00:48.694Z,8.10
2023-05-15T10:03:18.661Z,8.27
2023-05-15T10:05:45.839Z,8.00
2023-05-15T10:08:12.780Z,8.15
2023-05-15T10:10:40.868Z,7.90
2023-05-15T10:13:08.582Z,8.77
2023-05-15T10:15:35.418Z,7.97
2023-05-15T10:18:04.723Z,7.90
2023-05-15T10:20:33.358Z,7.68
2023-05-15T10:23:04.086Z,9.07
2023-05-15T10:25:42.724Z,7.95
2023-05-15T10:28:10.665Z,8.30
2023-05-15T10:30:38.694Z,7.00
2023-05-15T10:33:07.149Z,6.68
2023-05-15T10:35:40.089Z,7.20
2023-05-15T10:40:37.277Z,6.47
2023-05-15T10:43:05.123Z,5.57
2023-05-15T10:45:32.720Z,6.22
2023-05-15T10:48:00.306Z,6.00
2023-05-15T10:50:27.641Z,5.85
2023-05-15T10:52:55.368Z,5.07
2023-05-15T10:55:23.034Z,6.38
2023-05-15T10:57:50.137Z,5.90
2023-05-15T11:00:22.834Z,5.70
2023-05-15T11:02:51.052Z,5.75
2023-05-15T11:05:17.786Z,5.93
2023-05-15T11:07:44.260Z,6.40
2023-05-15T11:10:40.263Z,6.70
2023-05-15T11:13:06.892Z,6.63
2023-05-15T11:15:44.617Z,6.15
2023-05-15T11:18:13.996Z,5.63
2023-05-15T11:20:43.729Z,5.38
2023-05-15T11:23:11.510Z,5.47
2023-05-15T11:25:38.688Z,5.57
2023-05-15T11:30:40.992Z,4.70
2023-05-15T11:33:11.040Z,4.60
2023-05-15T11:35:39.492Z,4.40
2023-05-15T11:38:36.830Z,3.90
2023-05-15T11:41:03.670Z,4.03
2023-05-15T11:43:35.618Z,4.05
2023-05-15T11:46:10.775Z,4.40
2023-05-15T11:48:42.670Z,4.18
2023-05-15T11:51:21.483Z,3.65
2023-05-15T11:53:53.414Z,3.70
2023-05-15T11:56:22.931Z,3.20
2023-05-15T11:58:56.876Z,3.22
2023-05-15T12:01:23.716Z,3.30
2023-05-15T12:06:18.294Z,3.08
2023-05-15T12:08:50.297Z,2.80
2023-05-15T12:11:16.857Z,2.72
2023-05-15T12:13:43.671Z,2.85
2023-05-15T12:16:10.213Z,3.10
2023-05-15T12:18:37.069Z,4.00
2023-05-15T12:21:03.970Z,2.90
2023-05-15T12:23:32.105Z,2.72
2023-05-15T12:26:02.683Z,2.70
2023-05-15T12:28:30.653Z,2.88
2023-05-15T12:30:58.578Z,2.95
2023-05-15T12:33:25.362Z,3.08
2023-05-15T12:38:27.005Z,2.90
2023-05-15T12:43:23.544Z,3.15
2023-05-15T12:45:53.045Z,3.10
2023-05-15T12:48:20.815Z,2.80
2023-05-15T12:50:47.646Z,3.20
2023-05-15T12:55:44.792Z,2.95
2023-05-15T12:58:13.088Z,3.38
2023-05-15T13:00:42.433Z,3.33
2023-05-15T13:03:12.064Z,3.17
2023-05-15T13:05:41.954Z,2.70
2023-05-15T13:08:08.551Z,3.20
2023-05-15T13:10:37.645Z,3.03
2023-05-15T13:13:04.466Z,3.10
2023-05-15T13:15:30.951Z,2.97
2023-05-15T13:18:05.211Z,2.90
2023-05-15T13:20:36.021Z,3.60
2023-05-15T13:23:03.162Z,3.60
2023-05-15T13:25:32.171Z,3.05
2023-05-15T13:28:01.432Z,3.38
2023-05-15T13:30:28.665Z,2.50
2023-05-15T13:32:56.117Z,2.20
2023-05-15T13:35:23.000Z,2.00
2023-05-15T13:37:49.801Z,2.25
2023-05-15T13:40:16.759Z,2.10
2023-05-15T13:45:13.502Z,2.55
2023-05-15T13:47:40.969Z,2.30
2023-05-15T13:50:15.684Z,2.33
2023-05-15T13:52:44.206Z,2.90
2023-05-15T13:55:11.365Z,2.70
2023-05-15T13:57:42.490Z,3.22
2023-05-15T14:00:11.696Z,3.53
2023-05-15T14:02:38.902Z,3.50
2023-05-15T14:05:05.810Z,3.72
2023-05-15T14:09:59.202Z,3.72
2023-05-15T14:12:25.692Z,4.22
2023-05-15T14:14:52.306Z,4.30
2023-05-15T14:17:19.772Z,5.00
2023-05-15T14:19:48.077Z,4.38
2023-05-15T14:22:15.045Z,4.30
2023-05-15T14:24:42.533Z,4.70
2023-05-15T14:27:09.520Z,5.05
2023-05-15T14:32:02.908Z,4.68
2023-05-15T14:34:30.999Z,4.47
2023-05-15T14:36:57.957Z,4.78
2023-05-15T14:39:25.476Z,4.43
2023-05-15T14:41:51.961Z,5.07
2023-05-15T14:44:18.564Z,5.50
2023-05-15T14:46:44.988Z,5.10
2023-05-15T14:49:11.739Z,4.97
2023-05-15T14:51:38.537Z,4.68
2023-05-15T14:54:05.252Z,4.85
2023-05-15T14:56:32.171Z,5.07
2023-05-15T14:59:00.139Z,4.97
2023-05-15T15:01:27.219Z,5.20
2023-05-15T15:03:53.802Z,4.78
2023-05-15T15:06:20.452Z,4.75
2023-05-15T15:08:46.952Z,4.10
2023-05-15T15:11:13.775Z,3.95
2023-05-15T15:13:40.261Z,3.88
2023-05-15T15:16:07.538Z,3.63
2023-05-15T15:18:34.337Z,4.32
2023-05-15T15:21:00.939Z,4.32
2023-05-15T15:23:27.640Z,3.80
2023-05-15T15:25:54.122Z,3.75
2023-05-15T15:28:20.650Z,4.18
2023-05-15T15:30:47.214Z,4.05
2023-05-15T15:33:14.225Z,3.58
2023-05-15T15:38:11.454Z,4.22
2023-05-15T15:40:37.963Z,4.80
2023-05-15T15:43:04.675Z,4.07
2023-05-15T15:45:31.238Z,4.40
2023-05-15T15:47:57.793Z,4.50
2023-05-15T15:50:26.048Z,4.32
2023-05-15T15:52:52.768Z,4.25
2023-05-15T15:55:19.269Z,4.22
2023-05-15T15:57:45.709Z,4.53
2023-05-15T16:00:12.769Z,4.63
2023-05-15T16:02:40.828Z,4.43
2023-05-15T16:05:07.610Z,5.45
2023-05-15T16:07:34.350Z,4.65
2023-05-15T16:10:11.788Z,4.53
2023-05-15T16:12:40.243Z,5.18
2023-05-15T16:15:20.790Z,5.05
2023-05-15T16:17:51.006Z,5.43
2023-05-15T16:20:17.877Z,5.70
2023-05-15T16:22:44.777Z,5.60
2023-05-15T16:27:37.625Z,5.53
2023-05-15T16:30:04.399Z,5.88
2023-05-15T16:32:31.134Z,6.60
2023-05-15T16:34:57.952Z,6.78
2023-05-15T16:37:24.700Z,5.68
2023-05-15T16:39:51.226Z,6.78
2023-05-15T16:42:18.369Z,6.47
2023-05-15T16:44:45.228Z,6.13
2023-05-15T16:49:38.507Z,5.45
2023-05-15T16:54:31.759Z,6.47
2023-05-15T16:56:58.223Z,6.30
2023-05-15T16:59:24.945Z,6.30
2023-05-15T17:01:51.740Z,6.47
2023-05-15T17:04:18.424Z,6.30
2023-05-15T17:06:45.221Z,5.88
2023-05-15T17:09:13.197Z,9.05
2023-05-15T17:11:39.626Z,5.45
2023-05-15T17:14:06.374Z,5.82
2023-05-15T17:16:32.870Z,6.55
2023-05-15T17:19:02.165Z,6.32
2023-05-15T17:21:28.727Z,5.95
2023-05-15T17:23:55.466Z,6.45
2023-05-15T17:26:21.878Z,6.70
2023-05-15T17:28:48.693Z,6.85
2023-05-15T17:31:15.418Z,6.82
2023-05-15T17:33:42.154Z,6.88
2023-05-15T17:36:08.858Z,6.60
2023-05-15T17:38:36.683Z,6.70
2023-05-15T17:41:03.455Z,6.97
2023-05-15T17:43:30.399Z,7.22
2023-05-15T17:48:23.451Z,7.30
2023-05-15T17:50:50.284Z,6.95
2023-05-15T17:55:43.684Z,7.90
2023-05-15T17:58:10.498Z,7.68
2023-05-15T18:00:37.054Z,7.47
2023-05-15T18:03:03.971Z,8.57
2023-05-15T18:05:30.681Z,7.75
2023-05-15T18:07:57.113Z,9.15
2023-05-15T18:10:24.727Z,12.43
2023-05-15T18:12:51.211Z,12.30
2023-05-15T18:15:17.717Z,10.57
2023-05-15T18:17:44.676Z,11.25
2023-05-15T18:20:12.115Z,12.10
2023-05-15T18:22:38.561Z,10.88
2023-05-15T18:25:06.670Z,9.93
2023-05-15T18:27:33.302Z,9.65
2023-05-15T18:30:02.069Z,9.15
2023-05-15T18:32:28.630Z,8.38
2023-05-15T18:34:55.249Z,8.48
2023-05-15T18:37:21.700Z,9.05
2023-05-15T18:39:48.349Z,8.95
2023-05-15T18:42:15.718Z,8.68
2023-05-15T18:44:42.907Z,8.48
2023-05-15T18:47:09.805Z,8.35
2023-05-15T18:49:36.668Z,6.93
2023-05-15T18:52:03.348Z,6.03
2023-05-15T18:54:31.117Z,5.78
2023-05-15T18:56:57.787Z,5.63
2023-05-15T18:59:24.301Z,6.10
2023-05-15T19:01:50.902Z,6.95
2023-05-15T19:04:17.659Z,8.40
2023-05-15T19:06:47.125Z,10.23
2023-05-15T19:09:13.747Z,8.18
2023-05-15T19:11:40.467Z,6.97
2023-05-15T19:14:07.178Z,7.35
2023-05-15T19:16:33.979Z,6.57
2023-05-15T19:19:00.854Z,6.53
2023-05-15T19:21:27.466Z,6.53
2023-05-15T19:23:54.254Z,5.80
2023-05-15T19:26:22.269Z,6.00
2023-05-15T19:28:48.977Z,6.22
2023-05-15T19:31:30.139Z,6.30
2023-05-15T19:33:57.039Z,6.18
2023-05-15T19:36:23.848Z,5.15
2023-05-15T19:38:51.731Z,5.88
2023-05-15T19:41:18.281Z,5.75
2023-05-15T19:43:44.830Z,5.40
2023-05-15T19:46:11.435Z,5.72
2023-05-15T19:48:37.941Z,5.82
2023-05-15T19:51:05.537Z,6.25
2023-05-15T19:53:32.172Z,6.05
2023-05-15T19:55:58.587Z,5.65
2023-05-15T19:58:25.387Z,5.38
2023-05-15T20:00:52.002Z,5.22
2023-05-15T20:03:19.150Z,5.78
2023-05-15T20:05:46.121Z,4.90
2023-05-15T20:08:12.959Z,5.38
2023-05-15T20:10:40.151Z,5.07
2023-05-15T20:13:07.369Z,5.30
2023-05-15T20:15:34.065Z,5.15
2023-05-15T20:18:01.229Z,5.35
2023-05-15T20:20:29.302Z,5.18
2023-05-15T20:22:56.201Z,4.78
2023-05-15T20:25:24.223Z,5.72
2023-05-15T20:27:51.135Z,5.60
2023-05-15T20:30:17.739Z,5.38
2023-05-15T20:32:47.425Z,5.55
2023-05-15T20:35:14.056Z,5.40
2023-05-15T20:37:42.187Z,5.43
2023-05-15T20:40:12.948Z,5.88
2023-05-15T20:42:39.955Z,5.18
2023-05-15T20:45:08.889Z,5.43
2023-05-15T20:47:36.769Z,5.43
2023-05-15T20:50:04.272Z,5.45
2023-05-15T20:52:30.766Z,5.68
2023-05-15T20:54:58.541Z,5.38
2023-05-15T20:57:27.113Z,5.78
2023-05-15T20:59:53.802Z,6.22
2023-05-15T21:02:20.209Z,5.15
2023-05-15T21:04:46.782Z,6.05
2023-05-15T21:07:13.603Z,5.80
2023-05-15T21:09:40.355Z,4.78
2023-05-15T21:12:07.290Z,5.18
2023-05-15T21:14:34.041Z,4.78
2023-05-15T21:17:01.030Z,5.28
2023-05-15T21:21:54.854Z,4.85
2023-05-15T21:24:21.768Z,5.05
2023-05-15T21:26:48.908Z,4.95
2023-05-15T21:29:15.690Z,5.45
2023-05-15T21:31:42.616Z,4.93
2023-05-15T21:34:09.447Z,5.00
2023-05-15T21:36:36.385Z,5.13
2023-05-15T21:39:03.433Z,4.82
2023-05-15T21:43:58.858Z,4.63
2023-05-15T21:46:25.452Z,5.40
2023-05-15T21:48:52.285Z,5.10
2023-05-15T21:51:20.203Z,5.55
2023-05-15T21:53:47.121Z,5.72
2023-05-15T21:56:14.612Z,4.68
2023-05-15T21:58:41.057Z,5.30
2023-05-15T22:01:07.548Z,5.38
2023-05-15T22:03:34.395Z,6.10
2023-05-15T22:06:00.983Z,5.82
2023-05-15T22:08:27.400Z,5.28
2023-05-15T22:10:54.040Z,5.70
2023-05-15T22:13:20.979Z,5.95
2023-05-15T22:15:47.735Z,5.63
2023-05-15T22:18:14.465Z,5.90
2023-05-15T22:20:41.158Z,5.60
2023-05-15T22:23:07.711Z,6.15
2023-05-15T22:25:34.376Z,7.22
2023-05-15T22:28:01.197Z,6.90
2023-05-15T22:30:28.148Z,7.07
2023-05-15T22:32:56.435Z,7.30
2023-05-15T22:35:23.194Z,8.43
2023-05-15T22:37:50.001Z,11.05
2023-05-15T22:40:17.173Z,9.10
2023-05-15T22:42:44.430Z,9.00
2023-05-15T22:45:12.570Z,9.77
2023-05-15T22:47:39.377Z,9.95
2023-05-15T22:50:06.809Z,9.68
2023-05-15T22:52:34.893Z,9.27
2023-05-15T22:55:01.484Z,8.07
2023-05-15T22:57:28.494Z,7.10
2023-05-15T23:02:23.606Z,6.75
2023-05-15T23:04:50.237Z,7.25
2023-05-15T23:07:16.788Z,6.80
2023-05-15T23:09:44.171Z,6.63
2023-05-15T23:12:11.260Z,7.60
2023-05-15T23:14:38.276Z,6.28
2023-05-15T23:17:05.380Z,6.28
2023-05-15T23:22:03.340Z,6.55
2023-05-15T23:24:31.432Z,6.50
2023-05-15T23:26:58.343Z,6.47
2023-05-15T23:31:51.526Z,6.93
2023-05-15T23:34:18.162Z,7.03
2023-05-15T23:36:45.570Z,7.57
2023-05-15T23:39:12.010Z,7.32
2023-05-15T23:41:38.496Z,8.30
2023-05-15T23:44:05.036Z,7.63
2023-05-15T23:46:32.129Z,8.23
2023-05-15T23:48:58.599Z,7.60
2023-05-15T23:51:25.534Z,8.63
2023-05-15T23:53:52.503Z,8.75
2023-05-15T23:59:06.859Z,8.38
